createdAt,value
2018-06-12T04:39:32.649Z,988.1
2018-06-12T04:39:52.889Z,988.1
2018-06-12T04:40:13.064Z,988.1
2018-06-12T04:40:33.202Z,988.1
2018-06-12T04:45:41.932Z,988.1
2018-06-12T04:46:02.345Z,988.1
2018-06-12T04:46:22.578Z,988.1
2018-06-12T04:46:42.763Z,988.1
2018-06-12T04:47:03.763Z,988.1
2018-06-12T04:48:45.995Z,988.1
2018-06-12T04:50:52.467Z,988.1
2018-06-12T04:51:12.651Z,988.1
2018-06-12T04:51:32.946Z,988.1
2018-06-12T04:56:08.249Z,988.3
2018-06-12T04:59:26.330Z,988.4
2018-06-12T05:06:55.644Z,988.5
2018-06-12T05:10:26.187Z,988.5
2018-06-12T05:11:15.681Z,988.5
2018-06-12T05:13:10.074Z,988.5
2018-06-12T05:13:30.269Z,988.5
2018-06-12T05:13:51.062Z,988.5
2018-06-12T05:14:11.200Z,988.5
2018-06-12T05:14:31.374Z,988.5
2018-06-12T05:14:51.594Z,988.5
2018-06-12T05:15:11.766Z,988.5
2018-06-12T05:16:28.211Z,988.4
2018-06-12T05:16:48.386Z,988.4
2018-06-12T05:17:54.895Z,988.4
2018-06-12T05:18:15.112Z,988.5
2018-06-12T05:18:35.324Z,988.5
2018-06-12T05:19:09.337Z,988.5
2018-06-12T05:19:29.562Z,988.5
2018-06-12T05:19:49.732Z,988.5
2018-06-12T05:20:10.025Z,988.4
2018-06-12T05:20:30.256Z,988.5
2018-06-12T05:20:50.496Z,988.5
2018-06-12T05:21:10.653Z,988.4
2018-06-12T05:21:30.826Z,988.5
2018-06-12T05:21:51.028Z,988.5
2018-06-12T05:22:11.247Z,988.5
2018-06-12T05:22:31.418Z,988.5
2018-06-12T05:22:51.662Z,988.5
2018-06-12T05:24:00.660Z,988.6
2018-06-12T05:24:20.807Z,988.5
2018-06-12T05:25:15.022Z,988.5
2018-06-12T05:25:35.203Z,988.5
2018-06-12T05:26:29.381Z,988.5
2018-06-12T05:26:49.613Z,988.5
2018-06-12T05:27:43.840Z,988.6
2018-06-12T05:28:04.037Z,988.6
2018-06-12T05:28:45.825Z,988.6
2018-06-12T05:29:05.970Z,988.6
2018-06-12T05:30:00.184Z,988.6
2018-06-12T05:30:56.150Z,988.6
2018-06-12T05:31:16.335Z,988.6
2018-06-12T05:32:10.382Z,988.6
2018-06-12T05:32:30.571Z,988.6
2018-06-12T05:33:24.751Z,988.6
2018-06-12T05:33:44.939Z,988.6
2018-06-12T05:34:39.115Z,988.6
2018-06-12T05:34:59.275Z,988.6
2018-06-12T05:35:59.932Z,988.6
2018-06-12T05:36:20.179Z,988.7
2018-06-12T05:37:08.324Z,988.7
2018-06-12T05:37:28.478Z,988.7
2018-06-12T05:38:29.324Z,988.6
2018-06-12T05:38:49.481Z,988.6
2018-06-12T05:39:09.600Z,988.7
2018-06-12T05:39:56.448Z,988.7
2018-06-12T05:40:16.624Z,988.7
2018-06-12T05:40:36.818Z,988.7
2018-06-12T05:41:23.696Z,988.7
2018-06-12T05:41:43.874Z,988.7
2018-06-12T05:42:38.352Z,988.7
2018-06-12T05:43:27.946Z,988.7
2018-06-12T05:44:36.166Z,988.7
2018-06-12T05:46:21.516Z,988.8
2018-06-12T05:47:11.163Z,988.7
2018-06-12T05:48:00.731Z,988.7
2018-06-12T05:48:50.233Z,988.7
2018-06-12T05:49:33.701Z,988.7
2018-06-12T05:50:17.171Z,988.8
2018-06-12T05:50:37.409Z,988.8
2018-06-12T05:50:57.551Z,988.8
2018-06-12T05:51:44.303Z,988.7
2018-06-12T05:52:04.501Z,988.8
2018-06-12T05:52:52.924Z,988.7
2018-06-12T05:53:13.128Z,988.8
2018-06-12T05:53:33.285Z,988.8
2018-06-12T05:54:32.531Z,988.8
2018-06-12T05:54:52.707Z,988.8
2018-06-12T05:55:12.865Z,988.8
2018-06-12T05:55:33.039Z,988.8
2018-06-12T05:55:53.214Z,988.8
2018-06-12T05:56:14.271Z,988.8
2018-06-12T05:56:34.464Z,988.8
2018-06-12T05:56:54.634Z,988.8
2018-06-12T05:57:45.820Z,988.9
2018-06-12T05:58:05.965Z,988.9
2018-06-12T05:58:26.154Z,988.9
2018-06-12T05:59:00.704Z,988.9
2018-06-12T05:59:20.926Z,988.9
2018-06-12T06:00:46.511Z,988.9
2018-06-12T06:01:36.311Z,988.9
2018-06-12T06:02:38.595Z,988.9
2018-06-12T06:05:14.033Z,989
2018-06-12T06:06:03.653Z,988.9
2018-06-12T06:06:59.537Z,988.9
2018-06-12T06:07:19.724Z,988.9
2018-06-12T06:08:20.513Z,988.9
2018-06-12T06:08:40.824Z,988.9
2018-06-12T06:09:41.486Z,989
2018-06-12T06:10:01.744Z,989
2018-06-12T06:10:21.919Z,989
2018-06-12T06:10:56.268Z,989
2018-06-12T06:11:16.436Z,989
2018-06-12T06:11:36.648Z,989
2018-06-12T06:11:56.817Z,989
2018-06-12T06:12:17.049Z,989
2018-06-12T06:12:37.218Z,989
2018-06-12T06:12:57.396Z,989
2018-06-12T06:13:17.572Z,989
2018-06-12T06:13:37.745Z,989
2018-06-12T06:13:58.062Z,989
2018-06-12T06:14:18.211Z,989
2018-06-12T06:14:38.381Z,989
2018-06-12T06:14:58.580Z,989
2018-06-12T06:15:18.717Z,989
2018-06-12T06:15:38.887Z,989
2018-06-12T06:15:59.069Z,989.1
2018-06-12T06:16:19.218Z,989.1
2018-06-12T06:16:39.380Z,989.1
2018-06-12T06:16:59.562Z,989.1
2018-06-12T06:17:19.842Z,989
2018-06-12T06:17:40.028Z,989.1
2018-06-12T06:18:00.184Z,989
2018-06-12T06:18:20.397Z,989
2018-06-12T06:18:40.587Z,989.1
2018-06-12T06:19:00.783Z,989.1
2018-06-12T06:19:20.963Z,989.1
2018-06-12T06:19:41.127Z,989.1
2018-06-12T06:20:01.273Z,989
2018-06-12T06:20:21.456Z,989
2018-06-12T06:20:41.600Z,989.1
2018-06-12T06:21:01.792Z,989.1
2018-06-12T06:21:21.946Z,989.1
2018-06-12T06:21:42.117Z,989.1
2018-06-12T06:22:02.281Z,989.1
2018-06-12T06:22:22.478Z,989.1
2018-06-12T06:22:42.787Z,989.1
2018-06-12T06:23:02.950Z,989.1
2018-06-12T06:23:23.122Z,989.2
2018-06-12T06:23:43.344Z,989.2
2018-06-12T06:24:03.504Z,989.1
2018-06-12T06:24:23.691Z,989.1
2018-06-12T06:24:43.847Z,989.2
2018-06-12T06:25:04.015Z,989.2
2018-06-12T06:25:24.216Z,989.2
2018-06-12T06:25:44.373Z,989.2
2018-06-12T06:26:04.562Z,989.2
2018-06-12T06:26:24.707Z,989.2
2018-06-12T06:26:44.854Z,989.2
2018-06-12T06:27:05.046Z,989.2
2018-06-12T06:27:25.197Z,989.2
2018-06-12T06:27:45.399Z,989.2
2018-06-12T06:28:05.563Z,989.2
2018-06-12T06:28:25.708Z,989.2
2018-06-12T06:28:45.860Z,989.2
2018-06-12T06:29:06.097Z,989.2
2018-06-12T06:29:26.361Z,989.2
2018-06-12T06:29:46.616Z,989.3
2018-06-12T06:30:06.770Z,989.2
2018-06-12T06:30:26.909Z,989.3
2018-06-12T06:30:47.082Z,989.3
2018-06-12T06:31:07.235Z,989.3
2018-06-12T06:31:27.512Z,989.3
2018-06-12T06:31:47.715Z,989.3
2018-06-12T06:32:07.860Z,989.3
2018-06-12T06:32:28.021Z,989.3
2018-06-12T06:32:48.212Z,989.3
2018-06-12T06:33:08.409Z,989.3
2018-06-12T06:33:28.590Z,989.3
2018-06-12T06:33:48.790Z,989.3
2018-06-12T06:34:09.015Z,989.3
2018-06-12T06:34:29.208Z,989.3
2018-06-12T06:34:49.473Z,989.3
2018-06-12T06:35:09.737Z,989.3
2018-06-12T06:35:29.883Z,989.3
2018-06-12T06:35:50.076Z,989.3
2018-06-12T06:36:10.253Z,989.4
2018-06-12T06:36:30.603Z,989.4
2018-06-12T06:36:50.775Z,989.4
2018-06-12T06:37:10.963Z,989.4
2018-06-12T06:37:31.129Z,989.4
2018-06-12T06:37:51.269Z,989.4
2018-06-12T06:38:11.416Z,989.4
2018-06-12T06:38:31.577Z,989.4
2018-06-12T06:38:51.739Z,989.4
2018-06-12T06:39:11.936Z,989.4
2018-06-12T06:39:32.156Z,989.4
2018-06-12T06:39:52.347Z,989.4
2018-06-12T06:40:12.561Z,989.4
2018-06-12T06:40:32.737Z,989.4
2018-06-12T06:40:52.893Z,989.4
2018-06-12T06:41:13.103Z,989.4
2018-06-12T06:41:33.293Z,989.4
2018-06-12T06:41:53.504Z,989.4
2018-06-12T06:42:13.742Z,989.5
2018-06-12T06:42:33.913Z,989.5
2018-06-12T06:42:54.083Z,989.5
2018-06-12T06:43:14.360Z,989.5
2018-06-12T06:43:34.535Z,989.4
2018-06-12T06:43:54.698Z,989.5
2018-06-12T06:44:14.902Z,989.5
2018-06-12T06:44:35.088Z,989.5
2018-06-12T06:44:55.274Z,989.5
2018-06-12T06:45:15.438Z,989.5
2018-06-12T06:45:35.589Z,989.5
2018-06-12T06:45:55.820Z,989.5
2018-06-12T06:46:15.992Z,989.5
2018-06-12T06:46:36.278Z,989.5
2018-06-12T06:46:56.462Z,989.5
2018-06-12T06:47:16.676Z,989.5
2018-06-12T06:47:36.814Z,989.5
2018-06-12T06:47:56.996Z,989.5
2018-06-12T06:48:17.148Z,989.5
2018-06-12T06:48:37.289Z,989.5
2018-06-12T06:48:57.497Z,989.5
2018-06-12T06:49:17.718Z,989.5
2018-06-12T06:49:37.895Z,989.5
2018-06-12T06:49:58.124Z,989.5
2018-06-12T06:50:18.254Z,989.5
2018-06-12T06:50:38.442Z,989.6
2018-06-12T06:50:58.618Z,989.5
2018-06-12T06:51:18.776Z,989.5
2018-06-12T06:51:39.028Z,989.6
2018-06-12T06:51:59.177Z,989.5
2018-06-12T06:52:19.339Z,989.5
2018-06-12T06:52:39.496Z,989.6
2018-06-12T06:52:59.684Z,989.5
2018-06-12T06:53:19.853Z,989.6
2018-06-12T06:53:40.066Z,989.6
2018-06-12T06:54:00.205Z,989.5
2018-06-12T06:54:20.393Z,989.5
2018-06-12T06:54:40.534Z,989.5
2018-06-12T06:55:00.737Z,989.5
2018-06-12T06:55:20.949Z,989.5
2018-06-12T06:55:41.148Z,989.5
2018-06-12T06:56:01.355Z,989.5
2018-06-12T06:56:21.532Z,989.5
2018-06-12T06:56:41.694Z,989.5
2018-06-12T06:57:01.901Z,989.6
2018-06-12T06:57:22.064Z,989.6
2018-06-12T06:57:42.224Z,989.6
2018-06-12T06:58:02.403Z,989.6
2018-06-12T06:58:22.561Z,989.6
2018-06-12T06:58:42.721Z,989.6
2018-06-12T06:59:03.052Z,989.6
2018-06-12T06:59:23.200Z,989.6
2018-06-12T06:59:43.380Z,989.6
2018-06-12T07:00:03.646Z,989.6
2018-06-12T07:00:23.797Z,989.6
2018-06-12T07:00:43.957Z,989.6
2018-06-12T07:01:04.122Z,989.6
2018-06-12T07:01:24.360Z,989.6
2018-06-12T07:01:44.508Z,989.6
2018-06-12T07:02:04.691Z,989.6
2018-06-12T07:02:24.978Z,989.6
2018-06-12T07:02:45.156Z,989.6
2018-06-12T07:03:05.328Z,989.6
2018-06-12T07:03:25.501Z,989.6
2018-06-12T07:03:45.678Z,989.6
2018-06-12T07:04:05.851Z,989.6
2018-06-12T07:04:26.029Z,989.6
2018-06-12T07:04:46.262Z,989.6
2018-06-12T07:05:06.427Z,989.6
2018-06-12T07:05:26.603Z,989.6
2018-06-12T07:05:46.827Z,989.6
2018-06-12T07:06:07.053Z,989.6
2018-06-12T07:06:27.205Z,989.6
2018-06-12T07:06:47.363Z,989.6
2018-06-12T07:07:07.554Z,989.6
2018-06-12T07:07:27.723Z,989.6
2018-06-12T07:07:47.883Z,989.6
2018-06-12T07:08:08.051Z,989.6
2018-06-12T07:08:28.309Z,989.6
2018-06-12T07:08:48.500Z,989.7
2018-06-12T07:09:08.727Z,989.7
2018-06-12T07:09:28.839Z,989.7
2018-06-12T07:09:48.984Z,989.7
2018-06-12T07:10:09.143Z,989.7
2018-06-12T07:10:29.313Z,989.7
2018-06-12T07:10:49.482Z,989.7
2018-06-12T07:11:09.668Z,989.7
2018-06-12T07:11:29.826Z,989.7
2018-06-12T07:11:50.012Z,989.7
2018-06-12T07:12:10.164Z,989.7
2018-06-12T07:12:30.330Z,989.7
2018-06-12T07:12:50.503Z,989.7
2018-06-12T07:13:10.659Z,989.7
2018-06-12T07:13:30.838Z,989.7
2018-06-12T07:13:51.021Z,989.7
2018-06-12T07:14:11.173Z,989.7
2018-06-12T07:14:31.427Z,989.8
2018-06-12T07:14:51.612Z,989.8
2018-06-12T07:15:11.905Z,989.7
2018-06-12T07:15:32.070Z,989.7
2018-06-12T07:15:52.237Z,989.8
2018-06-12T07:16:12.379Z,989.7
2018-06-12T07:16:32.544Z,989.7
2018-06-12T07:16:52.723Z,989.7
2018-06-12T07:17:12.859Z,989.7
2018-06-12T07:17:33.043Z,989.7
2018-06-12T07:17:53.205Z,989.8
2018-06-12T07:18:13.382Z,989.7
2018-06-12T07:18:33.554Z,989.7
2018-06-12T07:18:53.713Z,989.8
2018-06-12T07:19:13.881Z,989.8
2018-06-12T07:19:34.044Z,989.8
2018-06-12T07:19:54.201Z,989.7
2018-06-12T07:20:14.363Z,989.8
2018-06-12T07:20:34.605Z,989.8
2018-06-12T07:20:54.833Z,989.8
2018-06-12T07:21:14.963Z,989.8
2018-06-12T07:21:35.145Z,989.8
2018-06-12T07:21:55.273Z,989.7
2018-06-12T07:22:15.499Z,989.8
2018-06-12T07:22:35.690Z,989.8
2018-06-12T07:22:55.858Z,989.8
2018-06-12T07:23:16.009Z,989.8
2018-06-12T07:23:36.214Z,989.8
2018-06-12T07:23:56.378Z,989.8
2018-06-12T07:24:16.548Z,989.8
2018-06-12T07:24:36.720Z,989.8
2018-06-12T07:24:56.859Z,989.8
2018-06-12T07:25:17.036Z,989.8
2018-06-12T07:25:37.222Z,989.9
2018-06-12T07:25:57.473Z,989.8
2018-06-12T07:26:17.644Z,989.9
2018-06-12T07:26:37.830Z,989.9
2018-06-12T07:26:57.959Z,989.9
2018-06-12T07:27:18.222Z,989.8
2018-06-12T07:27:38.413Z,989.9
2018-06-12T07:27:58.567Z,989.9
2018-06-12T07:28:18.792Z,989.9
2018-06-12T07:28:38.985Z,989.9
2018-06-12T07:28:59.144Z,989.9
2018-06-12T07:29:19.301Z,989.9
2018-06-12T07:29:39.564Z,989.9
2018-06-12T07:29:59.727Z,989.9
2018-06-12T07:30:19.992Z,989.8
2018-06-12T07:30:40.159Z,989.9
2018-06-12T07:31:00.411Z,989.9
2018-06-12T07:31:20.557Z,989.9
2018-06-12T07:31:40.751Z,989.9
2018-06-12T07:32:00.917Z,989.9
2018-06-12T07:32:21.176Z,989.9
2018-06-12T07:32:41.299Z,989.8
2018-06-12T07:33:01.510Z,989.9
2018-06-12T07:33:21.681Z,989.9
2018-06-12T07:33:41.918Z,989.9
2018-06-12T07:34:02.081Z,989.9
2018-06-12T07:34:22.333Z,989.9
2018-06-12T07:34:42.557Z,989.9
2018-06-12T07:35:02.716Z,989.9
2018-06-12T07:35:22.885Z,989.9
2018-06-12T07:35:43.063Z,989.9
2018-06-12T07:36:03.326Z,989.9
2018-06-12T07:36:23.475Z,989.9
2018-06-12T07:36:43.642Z,989.9
2018-06-12T07:37:03.803Z,989.9
2018-06-12T07:37:24.020Z,989.9
2018-06-12T07:37:44.238Z,989.9
2018-06-12T07:38:04.413Z,989.9
2018-06-12T07:38:24.580Z,989.9
2018-06-12T07:38:44.691Z,989.9
2018-06-12T07:39:04.848Z,989.9
2018-06-12T07:39:25.015Z,989.9
2018-06-12T07:39:45.152Z,989.8
2018-06-12T07:40:05.326Z,989.9
2018-06-12T07:40:25.475Z,989.9
2018-06-12T07:40:45.638Z,989.9
2018-06-12T07:41:05.824Z,989.8
2018-06-12T07:41:26.065Z,989.9
2018-06-12T07:41:46.228Z,989.8
2018-06-12T07:42:06.420Z,989.9
2018-06-12T07:42:26.593Z,989.8
2018-06-12T07:42:46.783Z,989.8
2018-06-12T07:43:06.965Z,989.9
2018-06-12T07:43:27.280Z,989.9
2018-06-12T07:43:47.421Z,989.8
2018-06-12T07:44:07.537Z,989.8
2018-06-12T07:44:27.789Z,989.8
2018-06-12T07:44:47.951Z,989.8
2018-06-12T07:45:08.221Z,989.8
2018-06-12T07:45:28.364Z,989.8
2018-06-12T07:45:48.566Z,989.9
2018-06-12T07:46:08.749Z,989.9
2018-06-12T07:46:28.889Z,989.8
2018-06-12T07:46:49.093Z,989.8
2018-06-12T07:47:09.326Z,989.8
2018-06-12T07:47:29.493Z,989.8
2018-06-12T07:47:49.679Z,989.8
2018-06-12T07:48:09.874Z,989.8
2018-06-12T07:48:30.057Z,989.8
2018-06-12T07:48:50.239Z,989.8
2018-06-12T07:49:10.457Z,989.9
2018-06-12T07:49:30.628Z,989.8
2018-06-12T07:49:50.816Z,989.8
2018-06-12T07:50:10.963Z,989.9
2018-06-12T07:50:31.141Z,989.9
2018-06-12T07:50:51.290Z,989.9
2018-06-12T07:51:11.432Z,989.9
2018-06-12T07:51:31.646Z,989.8
2018-06-12T07:51:51.851Z,989.8
2018-06-12T07:52:12.059Z,989.9
2018-06-12T07:52:32.260Z,989.9
2018-06-12T07:52:52.430Z,989.9
2018-06-12T07:53:12.620Z,989.9
2018-06-12T07:53:32.782Z,989.8
2018-06-12T07:53:52.958Z,989.8
2018-06-12T07:54:13.127Z,989.8
2018-06-12T07:54:33.296Z,989.9
2018-06-12T07:54:53.465Z,989.9
2018-06-12T07:55:13.635Z,989.9
2018-06-12T07:55:33.795Z,989.8
2018-06-12T07:55:54.017Z,989.9
2018-06-12T07:56:14.201Z,989.9
2018-06-12T07:56:34.353Z,989.9
2018-06-12T07:56:54.529Z,989.9
2018-06-12T07:57:14.690Z,989.8
2018-06-12T07:57:34.855Z,989.8
2018-06-12T07:57:55.021Z,989.8
2018-06-12T07:58:15.193Z,989.9
2018-06-12T07:58:35.351Z,989.9
2018-06-12T07:58:55.522Z,989.9
2018-06-12T07:59:15.755Z,989.9
2018-06-12T07:59:36.009Z,989.9
2018-06-12T07:59:56.170Z,989.9
2018-06-12T08:00:16.302Z,989.9
2018-06-12T08:00:36.474Z,989.9
2018-06-12T08:00:56.744Z,989.9
2018-06-12T08:01:16.915Z,989.9
2018-06-12T08:01:37.085Z,989.9
2018-06-12T08:01:57.243Z,989.9
2018-06-12T08:02:17.405Z,990
2018-06-12T08:02:37.590Z,989.9
2018-06-12T08:02:57.776Z,989.9
2018-06-12T08:03:18.000Z,989.9
2018-06-12T08:03:38.366Z,989.9
2018-06-12T08:03:58.503Z,989.9
2018-06-12T08:04:18.689Z,989.9
2018-06-12T08:04:38.964Z,990
2018-06-12T08:04:59.139Z,989.9
2018-06-12T08:05:19.291Z,989.9
2018-06-12T08:05:39.445Z,989.9
2018-06-12T08:05:59.598Z,989.9
2018-06-12T08:06:19.919Z,989.8
2018-06-12T08:06:40.098Z,989.8
2018-06-12T08:07:00.317Z,989.8
2018-06-12T08:07:20.601Z,989.8
2018-06-12T08:07:40.823Z,989.8
2018-06-12T08:08:01.021Z,989.8
2018-06-12T08:08:21.204Z,989.8
2018-06-12T08:08:41.397Z,989.8
2018-06-12T08:09:01.612Z,989.8
2018-06-12T08:09:21.769Z,989.8
2018-06-12T08:09:41.950Z,989.8
2018-06-12T08:10:02.194Z,989.8
2018-06-12T08:10:22.413Z,989.8
2018-06-12T08:10:42.639Z,989.8
2018-06-12T08:11:02.912Z,989.8
2018-06-12T08:11:23.115Z,989.8
2018-06-12T08:11:43.313Z,989.8
2018-06-12T08:12:03.516Z,989.9
2018-06-12T08:12:23.679Z,989.8
2018-06-12T08:12:44.009Z,989.8
2018-06-12T08:13:04.338Z,989.8
2018-06-12T08:13:24.440Z,989.8
2018-06-12T08:13:44.625Z,989.8
2018-06-12T08:14:04.820Z,989.8
2018-06-12T08:14:25.082Z,989.8
2018-06-12T08:14:45.354Z,989.8
2018-06-12T08:15:05.618Z,989.8
2018-06-12T08:15:25.791Z,989.8
2018-06-12T08:15:46.004Z,989.8
2018-06-12T08:16:06.239Z,989.8
2018-06-12T08:16:26.428Z,989.8
2018-06-12T08:16:46.599Z,989.8
2018-06-12T08:17:06.863Z,989.8
2018-06-12T08:17:27.085Z,989.8
2018-06-12T08:17:47.243Z,989.8
2018-06-12T08:18:07.459Z,989.8
2018-06-12T08:18:27.740Z,989.8
2018-06-12T08:18:47.980Z,989.8
2018-06-12T08:19:08.194Z,989.8
2018-06-12T08:19:28.492Z,989.7
2018-06-12T08:19:48.744Z,989.7
2018-06-12T08:20:08.985Z,989.8
2018-06-12T08:20:29.161Z,989.8
2018-06-12T08:20:49.358Z,989.8
2018-06-12T08:21:09.618Z,989.8
2018-06-12T08:21:29.909Z,989.8
2018-06-12T08:21:50.146Z,989.8
2018-06-12T08:22:10.410Z,989.8
2018-06-12T08:22:30.599Z,989.8
2018-06-12T08:22:50.886Z,989.8
2018-06-12T08:23:11.129Z,989.8
2018-06-12T08:23:31.381Z,989.9
2018-06-12T08:23:51.720Z,989.9
2018-06-12T08:24:11.902Z,989.9
2018-06-12T08:24:32.271Z,989.8
2018-06-12T08:24:52.609Z,989.8
2018-06-12T08:25:12.935Z,989.8
2018-06-12T08:25:33.131Z,989.8
2018-06-12T08:25:53.304Z,989.8
2018-06-12T08:26:13.459Z,989.8
2018-06-12T08:26:33.699Z,989.8
2018-06-12T08:26:53.899Z,989.8
2018-06-12T08:27:14.051Z,989.8
2018-06-12T08:27:34.280Z,989.8
2018-06-12T08:27:54.501Z,989.8
2018-06-12T08:28:14.759Z,989.8
2018-06-12T08:28:34.986Z,989.8
2018-06-12T08:28:55.238Z,989.8
2018-06-12T08:29:15.455Z,989.9
2018-06-12T08:29:35.822Z,989.9
2018-06-12T08:29:56.221Z,989.8
2018-06-12T08:30:16.720Z,989.8
2018-06-12T08:30:37.147Z,989.8
2018-06-12T08:30:57.324Z,989.8
2018-06-12T08:31:17.520Z,989.8
2018-06-12T08:31:37.700Z,989.8
2018-06-12T08:31:57.979Z,989.8
2018-06-12T08:32:18.983Z,989.8
2018-06-12T08:32:39.214Z,989.9
2018-06-12T08:32:59.443Z,989.8
2018-06-12T08:33:19.707Z,989.9
2018-06-12T08:33:39.982Z,989.9
2018-06-12T08:34:00.280Z,989.9
2018-06-12T08:34:20.448Z,989.9
2018-06-12T08:34:40.693Z,989.8
2018-06-12T08:35:00.904Z,989.8
2018-06-12T08:35:21.157Z,989.8
2018-06-12T08:35:41.410Z,989.8
2018-06-12T08:36:01.534Z,989.8
2018-06-12T08:36:21.690Z,989.8
2018-06-12T08:36:41.825Z,989.8
2018-06-12T08:37:02.024Z,989.8
2018-06-12T08:37:23.049Z,989.8
2018-06-12T08:37:43.274Z,989.8
2018-06-12T08:38:03.445Z,989.8
2018-06-12T08:38:23.783Z,989.8
2018-06-12T08:38:44.018Z,989.8
2018-06-12T08:39:04.163Z,989.9
2018-06-12T08:39:24.345Z,989.8
2018-06-12T08:39:44.505Z,989.8
2018-06-12T08:40:04.690Z,989.8
2018-06-12T08:40:24.882Z,989.8
2018-06-12T08:40:45.164Z,989.8
2018-06-12T08:41:05.557Z,989.8
2018-06-12T08:41:25.883Z,989.9
2018-06-12T08:41:46.073Z,989.9
2018-06-12T08:42:06.400Z,989.9
2018-06-12T08:42:26.558Z,989.9
2018-06-12T08:42:46.725Z,989.9
2018-06-12T08:43:06.963Z,989.9
2018-06-12T08:43:27.172Z,989.9
2018-06-12T08:43:47.425Z,989.9
2018-06-12T08:44:07.664Z,989.9
2018-06-12T08:44:27.855Z,989.8
2018-06-12T08:44:48.139Z,989.8
2018-06-12T08:45:08.328Z,989.8
2018-06-12T08:45:28.522Z,989.9
2018-06-12T08:45:48.835Z,989.9
2018-06-12T08:46:09.080Z,989.8
2018-06-12T08:46:29.351Z,989.8
2018-06-12T08:46:49.505Z,989.8
2018-06-12T08:47:09.667Z,989.8
2018-06-12T08:47:29.984Z,989.9
2018-06-12T08:47:50.224Z,989.8
2018-06-12T08:48:10.369Z,989.8
2018-06-12T08:48:30.514Z,989.8
2018-06-12T08:48:50.695Z,989.9
2018-06-12T08:49:10.858Z,989.9
2018-06-12T08:49:31.013Z,989.9
2018-06-12T08:49:51.220Z,989.9
2018-06-12T08:50:11.408Z,989.9
2018-06-12T08:50:31.610Z,989.9
2018-06-12T08:50:51.767Z,989.9
2018-06-12T08:51:11.999Z,989.9
2018-06-12T08:51:32.255Z,989.9
2018-06-12T08:51:52.413Z,989.9
2018-06-12T08:52:12.666Z,989.9
2018-06-12T08:52:32.810Z,989.9
2018-06-12T08:52:53.098Z,989.9
2018-06-12T08:53:14.190Z,989.9
2018-06-12T08:53:34.417Z,989.9
2018-06-12T08:53:54.574Z,989.9
2018-06-12T08:54:14.783Z,989.9
2018-06-12T08:54:34.986Z,989.9
2018-06-12T08:54:55.256Z,989.8
2018-06-12T08:55:15.540Z,989.9
2018-06-12T08:55:35.773Z,989.9
2018-06-12T08:55:56.692Z,989.9
2018-06-12T08:56:16.882Z,989.9
2018-06-12T08:56:37.075Z,989.8
2018-06-12T08:56:57.309Z,989.9
2018-06-12T08:57:17.548Z,989.9
2018-06-12T08:57:37.719Z,989.9
2018-06-12T08:57:57.884Z,989.8
2018-06-12T08:58:18.034Z,989.9
2018-06-12T08:58:38.313Z,989.8
2018-06-12T08:58:58.493Z,989.8
2018-06-12T08:59:18.732Z,989.8
2018-06-12T08:59:38.970Z,989.8
2018-06-12T08:59:59.158Z,989.8
2018-06-12T09:00:19.376Z,989.8
2018-06-12T09:00:39.564Z,989.8
2018-06-12T09:00:59.766Z,989.9
2018-06-12T09:01:19.912Z,989.9
2018-06-12T09:01:40.166Z,989.9
2018-06-12T09:02:00.329Z,989.9
2018-06-12T09:02:20.577Z,989.9
2018-06-12T09:02:40.736Z,989.9
2018-06-12T09:03:00.980Z,989.9
2018-06-12T09:03:21.287Z,989.9
2018-06-12T09:03:41.597Z,989.9
2018-06-12T09:04:01.932Z,989.9
2018-06-12T09:04:22.054Z,989.9
2018-06-12T09:04:42.335Z,989.9
2018-06-12T09:05:02.341Z,989.9
2018-06-12T09:05:22.498Z,989.9
2018-06-12T09:05:42.678Z,989.9
2018-06-12T09:06:02.859Z,989.9
2018-06-12T09:06:23.136Z,989.9
2018-06-12T09:06:43.273Z,989.8
2018-06-12T09:07:03.442Z,989.9
2018-06-12T09:07:23.640Z,989.9
2018-06-12T09:07:43.878Z,989.8
2018-06-12T09:08:04.112Z,989.8
2018-06-12T09:08:24.263Z,989.8
2018-06-12T09:08:44.491Z,989.8
2018-06-12T09:09:04.675Z,989.8
2018-06-12T09:09:24.908Z,989.8
2018-06-12T09:09:45.116Z,989.8
2018-06-12T09:10:05.350Z,989.8
2018-06-12T09:10:25.536Z,989.8
2018-06-12T09:10:45.704Z,989.8
2018-06-12T09:11:05.951Z,989.8
2018-06-12T09:11:26.114Z,989.8
2018-06-12T09:11:46.404Z,989.8
2018-06-12T09:12:06.555Z,989.8
2018-06-12T09:12:26.755Z,989.8
2018-06-12T09:12:46.917Z,989.8
2018-06-12T09:13:07.077Z,989.8
2018-06-12T09:13:27.268Z,989.8
2018-06-12T09:13:47.451Z,989.8
2018-06-12T09:14:08.145Z,989.8
2018-06-12T09:14:28.304Z,989.9
2018-06-12T09:14:48.535Z,989.9
2018-06-12T09:15:08.706Z,989.9
2018-06-12T09:15:28.891Z,989.9
2018-06-12T09:15:49.055Z,989.9
2018-06-12T09:16:09.313Z,989.9
2018-06-12T09:16:29.484Z,989.9
2018-06-12T09:16:49.689Z,989.9
2018-06-12T09:17:09.906Z,990
2018-06-12T09:17:30.099Z,989.9
2018-06-12T09:17:50.354Z,989.9
2018-06-12T09:18:10.562Z,989.9
2018-06-12T09:18:30.757Z,989.9
2018-06-12T09:18:50.984Z,989.9
2018-06-12T09:19:11.377Z,990
2018-06-12T09:19:31.631Z,990
2018-06-12T09:19:51.796Z,990
2018-06-12T09:20:11.959Z,990
2018-06-12T09:20:32.307Z,990
2018-06-12T09:20:52.488Z,990
2018-06-12T09:21:12.795Z,990
2018-06-12T09:21:33.120Z,990
2018-06-12T09:21:53.324Z,990
2018-06-12T09:22:13.503Z,990
2018-06-12T09:22:33.689Z,990
2018-06-12T09:22:53.835Z,990
2018-06-12T09:23:14.021Z,990
2018-06-12T09:23:34.355Z,990
2018-06-12T09:23:54.538Z,990
2018-06-12T09:24:14.799Z,990
2018-06-12T09:24:34.990Z,990
2018-06-12T09:24:55.280Z,990
2018-06-12T09:25:15.480Z,990
2018-06-12T09:25:35.685Z,990
2018-06-12T09:25:55.861Z,990
2018-06-12T09:26:16.159Z,990
2018-06-12T09:26:36.418Z,990
2018-06-12T09:26:56.704Z,990
2018-06-12T09:27:16.886Z,990
2018-06-12T09:27:37.132Z,990.1
2018-06-12T09:27:57.337Z,990.1
2018-06-12T09:28:17.533Z,990.1
2018-06-12T09:28:37.710Z,990.1
2018-06-12T09:28:57.867Z,990.1
2018-06-12T09:29:18.022Z,990.1
2018-06-12T09:29:38.210Z,990.1
2018-06-12T09:29:58.387Z,990.1
2018-06-12T09:30:18.548Z,990.1
2018-06-12T09:30:38.748Z,990.1
2018-06-12T09:30:58.885Z,990.1
2018-06-12T09:31:19.171Z,990.1
2018-06-12T09:31:39.412Z,990.1
2018-06-12T09:31:59.553Z,990.2
2018-06-12T09:32:19.738Z,990.2
2018-06-12T09:32:39.918Z,990.2
2018-06-12T09:33:00.134Z,990.2
2018-06-12T09:33:20.372Z,990.2
2018-06-12T09:33:40.536Z,990.2
2018-06-12T09:34:00.713Z,990.1
2018-06-12T09:34:20.877Z,990.2
2018-06-12T09:34:41.085Z,990.2
2018-06-12T09:35:01.279Z,990.1
2018-06-12T09:35:21.455Z,990.1
2018-06-12T09:35:41.661Z,990.1
2018-06-12T09:36:01.837Z,990.1
2018-06-12T09:36:22.091Z,990.1
2018-06-12T09:36:42.338Z,990.1
2018-06-12T09:37:02.507Z,990.2
2018-06-12T09:37:22.720Z,990.1
2018-06-12T09:37:42.908Z,990.2
2018-06-12T09:38:03.088Z,990.1
2018-06-12T09:38:23.391Z,990.2
2018-06-12T09:38:43.596Z,990.2
2018-06-12T09:39:03.731Z,990.2
2018-06-12T09:39:23.903Z,990.2
2018-06-12T09:39:44.080Z,990.2
2018-06-12T09:40:04.308Z,990.2
2018-06-12T09:40:24.522Z,990.1
2018-06-12T09:40:44.714Z,990.2
2018-06-12T09:41:04.855Z,990.2
2018-06-12T09:41:25.029Z,990.2
2018-06-12T09:41:45.214Z,990.2
2018-06-12T09:42:05.515Z,990.2
2018-06-12T09:42:25.745Z,990.2
2018-06-12T09:42:45.918Z,990.2
2018-06-12T09:43:06.059Z,990.2
2018-06-12T09:43:26.284Z,990.2
2018-06-12T09:43:46.434Z,990.2
2018-06-12T09:44:06.699Z,990.2
2018-06-12T09:44:27.671Z,990.1
2018-06-12T09:44:47.903Z,990.1
2018-06-12T09:45:08.069Z,990.1
2018-06-12T09:45:28.330Z,990.2
2018-06-12T09:45:48.486Z,990.1
2018-06-12T09:46:08.709Z,990.2
2018-06-12T09:46:28.947Z,990.2
2018-06-12T09:46:49.131Z,990.2
2018-06-12T09:47:09.327Z,990.2
2018-06-12T09:47:29.516Z,990.2
2018-06-12T09:47:49.828Z,990.1
2018-06-12T09:48:10.070Z,990.1
2018-06-12T09:48:30.235Z,990.1
2018-06-12T09:48:50.395Z,990.1
2018-06-12T09:49:10.650Z,990.2
2018-06-12T09:49:30.855Z,990.1
2018-06-12T09:49:51.048Z,990.1
2018-06-12T09:50:11.202Z,990.1
2018-06-12T09:50:31.444Z,990.1
2018-06-12T09:50:51.631Z,990.1
2018-06-12T09:51:12.731Z,990.1
2018-06-12T09:51:32.898Z,990.1
2018-06-12T09:51:53.157Z,990.1
2018-06-12T09:52:13.384Z,990.1
2018-06-12T09:52:33.615Z,990.2
2018-06-12T09:52:53.860Z,990.1
2018-06-12T09:53:14.033Z,990.1
2018-06-12T09:53:34.206Z,990.2
2018-06-12T09:53:54.382Z,990.1